Johann Essberger — CQKG — position and weather

sailwx.info

Track history (hours):
 
Tides and Currents Weather Stations Pressure Air Temp Water Temp Dewpoint Dewpoint Depression Visibility Wind Speed Wind Dir Waves Ship Positions

Johann Essberger

Last reported at 2016-Feb-12 23:06 UTC. Time now 2016-Feb-13 06:51 UTC.
Position N 60°05' E 026°07'.

Length 100 m; draft 5.1 m.

Type: Ship (hazmat cat B). MMSI: 255804460.

Date/timePositionNaut miles runAvg speedWind from/ knotsBaromVisibWave heightAir tempDewpointWater temp
2016-Feb-12 23:06N 60°05' E 026°07'814.7
2016-Feb-12 22:33N 60°10' E 026°20'1313.1
2016-Feb-12 21:33N 60°20' E 026°37'1413.7
2016-Feb-12 20:34N 60°21' E 027°04'10 9.4
2016-Feb-12 19:29N 60°31' E 027°10'0 0.0
2016-Feb-12 09:33N 60°31' E 027°10'1110.6
2016-Feb-12 08:33N 60°21' E 027°01'1212.3
2016-Feb-12 07:33N 60°20' E 026°37'1010.3
2016-Feb-12 06:33N 60°12' E 026°23'8 8.1
2016-Feb-12 05:32N 60°06' E 026°13'45 6.3
2016-Feb-11 22:24N 59°33' E 027°13'7 7.9
2016-Feb-11 21:34N 59°31' E 027°25'8 7.9
2016-Feb-11 20:33N 59°29' E 027°41'2 0.1
2016-Feb-11 06:31N 59°29' E 027°37'454 9.3
2016-Feb-09 05:33N 55°37' E 015°31'1110.8
2016-Feb-09 04:33N 55°33' E 015°13'1211.5
2016-Feb-09 03:33N 55°28' E 014°55'1211.6
2016-Feb-09 02:33N 55°22' E 014°38'1211.7
2016-Feb-09 01:33N 55°13' E 014°24'10 9.9
2016-Feb-09 00:33N 55°10' E 014°07'1110.5
2016-Feb-08 23:33N 55°11' E 013°49'1010.4
2016-Feb-08 22:33N 55°12' E 013°31'2310.9
2016-Feb-08 20:28N 55°15' E 012°51'9 9.3
2016-Feb-08 19:29N 55°21' E 012°38'10 9.9
2016-Feb-08 18:29N 55°30' E 012°43'7 7.2
2016-Feb-08 17:32N 55°35' E 012°51'9 7.6
2016-Feb-08 16:24N 55°44' E 012°51'1011.7
2016-Feb-08 15:33N 55°53' E 012°44'1110.7
2016-Feb-08 14:33N 56°03' E 012°39'1010.1
2016-Feb-08 13:33N 56°10' E 012°24'37 9.4
2016-Feb-08 09:33N 56°43' E 011°53'8 7.6
2016-Feb-08 08:31N 56°50' E 011°48'8 7.9
2016-Feb-08 07:33N 56°58' E 011°44'9 8.3
2016-Feb-08 06:32N 57°06' E 011°38'8 8.6
2016-Feb-08 05:33N 57°14' E 011°34'9 9.0
2016-Feb-08 04:33N 57°22' E 011°28'9 8.9
2016-Feb-08 03:33N 57°31' E 011°24'9 8.7
2016-Feb-08 02:33N 57°39' E 011°23'9 9.3
2016-Feb-08 01:33N 57°49' E 011°25'10 9.8
2016-Feb-08 00:33N 57°55' E 011°38'1111.2
2016-Feb-07 23:32N 58°06' E 011°48'1211.5
2016-Feb-07 22:29N 58°18' E 011°48'11 1.0
2016-Feb-07 10:32N 58°06' E 011°48'1212.5
2016-Feb-07 09:33N 57°55' E 011°38'1212.1
2016-Feb-07 08:33N 57°50' E 011°17'10 9.9
2016-Feb-07 07:33N 57°50' E 010°58'1111.0
2016-Feb-07 06:32N 57°49' E 010°38'1211.5
2016-Feb-07 05:32N 57°45' E 010°17'1211.8
2016-Feb-07 04:33N 57°41' E 009°56'1211.7
2016-Feb-07 03:32N 57°35' E 009°37'1110.7
2016-Feb-07 02:32N 57°31' E 009°19'1010.5
2016-Feb-07 01:33N 57°26' E 009°02'22310.4
2016-Feb-06 04:11N 54°21' E 005°20'711.2
2016-Feb-06 03:33N 54°15' E 005°15'1111.2
2016-Feb-06 02:33N 54°05' E 005°07'1111.3
2016-Feb-06 01:33N 53°54' E 005°01'1110.9
2016-Feb-06 00:32N 53°43' E 004°54'4110.4
2016-Feb-05 20:33N 53°06' E 004°27'1010.2
2016-Feb-05 19:33N 52°57' E 004°19'1010.0
2016-Feb-05 18:33N 52°48' E 004°12'1010.2
2016-Feb-05 17:33N 52°40' E 004°01'4310.7
2016-Feb-05 13:33N 52°03' E 003°25'1211.9
2016-Feb-05 12:33N 51°51' E 003°20'1110.9
2016-Feb-05 11:33N 51°41' E 003°19'1313.6
2016-Feb-05 10:34N 51°29' E 003°30'9 8.9
2016-Feb-05 09:33N 51°25' E 003°43'9 9.0
2016-Feb-05 08:33N 51°23' E 003°57'7 6.7
2016-Feb-05 07:33N 51°22' E 004°07'9 9.2
2016-Feb-05 06:34N 51°17' E 004°19'3 2.6
2016-Feb-05 05:34N 51°16' E 004°16'0 0.3
2016-Feb-05 04:34N 51°16' E 004°15'0 0.0
2016-Feb-04 17:11N 51°16' E 004°15'1 1.4
2016-Feb-04 16:34N 51°16' E 004°17'0 0.0
2016-Feb-04 15:33N 51°16' E 004°17'0 0.5
2016-Feb-04 14:33N 51°16' E 004°17'0 0.4
2016-Feb-04 13:33N 51°16' E 004°18'1 1.5
2016-Feb-04 12:34N 51°17' E 004°20'1 1.0
2016-Feb-04 11:33N 51°16' E 004°20'0 0.0
2016-Feb-04 10:33N 51°16' E 004°20'0 0.0
2016-Feb-03 11:33N 51°16' E 004°20'3 3.4
2016-Feb-03 10:33N 51°19' E 004°19'2 2.0
2016-Feb-03 09:33N 51°21' E 004°17'3 3.2
2016-Feb-03 08:34N 51°22' E 004°13'10 9.8
2016-Feb-03 07:33N 51°24' E 003°57'1211.6
2016-Feb-03 06:34N 51°26' E 003°39'1211.8
2016-Feb-03 05:33N 51°34' E 003°25'  
Track history (hours):
 
Tides and Currents Weather Stations Pressure Air Temp Water Temp Dewpoint Dewpoint Depression Visibility Wind Speed Wind Dir Waves Ship Positions

Johann Essberger

Last reported at 2016-Feb-12 23:06 UTC. Time now 2016-Feb-13 06:51 UTC.
Position N 60°05' E 026°07'.

Length 100 m; draft 5.1 m.

Type: Ship (hazmat cat B). MMSI: 255804460.

Date/timePositionNaut miles runAvg speedWind from/ knotsBaromVisibWave heightAir tempDewpointWater temp
2016-Feb-12 23:06N 60°05' E 026°07'814.7
2016-Feb-12 22:33N 60°10' E 026°20'1313.1
2016-Feb-12 21:33N 60°20' E 026°37'1413.7
2016-Feb-12 20:34N 60°21' E 027°04'10 9.4
2016-Feb-12 19:29N 60°31' E 027°10'0 0.0
2016-Feb-12 09:33N 60°31' E 027°10'1110.6
2016-Feb-12 08:33N 60°21' E 027°01'1212.3
2016-Feb-12 07:33N 60°20' E 026°37'1010.3
2016-Feb-12 06:33N 60°12' E 026°23'8 8.1
2016-Feb-12 05:32N 60°06' E 026°13'45 6.3
2016-Feb-11 22:24N 59°33' E 027°13'7 7.9
2016-Feb-11 21:34N 59°31' E 027°25'8 7.9
2016-Feb-11 20:33N 59°29' E 027°41'2 0.1
2016-Feb-11 06:31N 59°29' E 027°37'454 9.3
2016-Feb-09 05:33N 55°37' E 015°31'1110.8
2016-Feb-09 04:33N 55°33' E 015°13'1211.5
2016-Feb-09 03:33N 55°28' E 014°55'1211.6
2016-Feb-09 02:33N 55°22' E 014°38'1211.7
2016-Feb-09 01:33N 55°13' E 014°24'10 9.9
2016-Feb-09 00:33N 55°10' E 014°07'1110.5
2016-Feb-08 23:33N 55°11' E 013°49'1010.4
2016-Feb-08 22:33N 55°12' E 013°31'2310.9
2016-Feb-08 20:28N 55°15' E 012°51'9 9.3
2016-Feb-08 19:29N 55°21' E 012°38'10 9.9
2016-Feb-08 18:29N 55°30' E 012°43'7 7.2
2016-Feb-08 17:32N 55°35' E 012°51'9 7.6
2016-Feb-08 16:24N 55°44' E 012°51'1011.7
2016-Feb-08 15:33N 55°53' E 012°44'1110.7
2016-Feb-08 14:33N 56°03' E 012°39'1010.1
2016-Feb-08 13:33N 56°10' E 012°24'37 9.4
2016-Feb-08 09:33N 56°43' E 011°53'8 7.6
2016-Feb-08 08:31N 56°50' E 011°48'8 7.9
2016-Feb-08 07:33N 56°58' E 011°44'9 8.3
2016-Feb-08 06:32N 57°06' E 011°38'8 8.6
2016-Feb-08 05:33N 57°14' E 011°34'9 9.0
2016-Feb-08 04:33N 57°22' E 011°28'9 8.9
2016-Feb-08 03:33N 57°31' E 011°24'9 8.7
2016-Feb-08 02:33N 57°39' E 011°23'9 9.3
2016-Feb-08 01:33N 57°49' E 011°25'10 9.8
2016-Feb-08 00:33N 57°55' E 011°38'1111.2
2016-Feb-07 23:32N 58°06' E 011°48'1211.5
2016-Feb-07 22:29N 58°18' E 011°48'11 1.0
2016-Feb-07 10:32N 58°06' E 011°48'1212.5
2016-Feb-07 09:33N 57°55' E 011°38'1212.1
2016-Feb-07 08:33N 57°50' E 011°17'10 9.9
2016-Feb-07 07:33N 57°50' E 010°58'1111.0
2016-Feb-07 06:32N 57°49' E 010°38'1211.5
2016-Feb-07 05:32N 57°45' E 010°17'1211.8
2016-Feb-07 04:33N 57°41' E 009°56'1211.7
2016-Feb-07 03:32N 57°35' E 009°37'1110.7
2016-Feb-07 02:32N 57°31' E 009°19'1010.5
2016-Feb-07 01:33N 57°26' E 009°02'22310.4
2016-Feb-06 04:11N 54°21' E 005°20'711.2
2016-Feb-06 03:33N 54°15' E 005°15'1111.2
2016-Feb-06 02:33N 54°05' E 005°07'1111.3
2016-Feb-06 01:33N 53°54' E 005°01'1110.9
2016-Feb-06 00:32N 53°43' E 004°54'4110.4
2016-Feb-05 20:33N 53°06' E 004°27'1010.2
2016-Feb-05 19:33N 52°57' E 004°19'1010.0
2016-Feb-05 18:33N 52°48' E 004°12'1010.2
2016-Feb-05 17:33N 52°40' E 004°01'4310.7
2016-Feb-05 13:33N 52°03' E 003°25'1211.9
2016-Feb-05 12:33N 51°51' E 003°20'1110.9
2016-Feb-05 11:33N 51°41' E 003°19'1313.6
2016-Feb-05 10:34N 51°29' E 003°30'9 8.9
2016-Feb-05 09:33N 51°25' E 003°43'9 9.0
2016-Feb-05 08:33N 51°23' E 003°57'7 6.7
2016-Feb-05 07:33N 51°22' E 004°07'9 9.2
2016-Feb-05 06:34N 51°17' E 004°19'3 2.6
2016-Feb-05 05:34N 51°16' E 004°16'0 0.3
2016-Feb-05 04:34N 51°16' E 004°15'0 0.0
2016-Feb-04 17:11N 51°16' E 004°15'1 1.4
2016-Feb-04 16:34N 51°16' E 004°17'0 0.0
2016-Feb-04 15:33N 51°16' E 004°17'0 0.5
2016-Feb-04 14:33N 51°16' E 004°17'0 0.4
2016-Feb-04 13:33N 51°16' E 004°18'1 1.5
2016-Feb-04 12:34N 51°17' E 004°20'1 1.0
2016-Feb-04 11:33N 51°16' E 004°20'0 0.0
2016-Feb-04 10:33N 51°16' E 004°20'0 0.0
2016-Feb-03 11:33N 51°16' E 004°20'3 3.4
2016-Feb-03 10:33N 51°19' E 004°19'2 2.0
2016-Feb-03 09:33N 51°21' E 004°17'3 3.2
2016-Feb-03 08:34N 51°22' E 004°13'10 9.8
2016-Feb-03 07:33N 51°24' E 003°57'1211.6
2016-Feb-03 06:34N 51°26' E 003°39'1211.8
2016-Feb-03 05:33N 51°34' E 003°25'  

Dump ship's entire track history